VSV1225 ULMM-UUYH
Flight info
| Callsign | VSV1225 |
|---|---|
| Flight time | 1h 38m |
| Altitude | 37000 |
| Route | LOPRA T822 SOTIS P35 UTUKA |
| Aircraft | B38M/M-SDE1FGHILORVWXY/LB1D1 |
Departure
| Time | 2026-04-27 16:08 |
|---|---|
| Airport | Emperor Nicholas II Murmansk Airport (ULMM) |
Arrival
| Time | 2026-04-27 17:46 |
|---|---|
| Airport | Ukhta Airport (UUYH) |
| Time | Latitude | Longitude | Altitude | Speed | Heading |
|---|---|---|---|---|---|
| 2026-04-27 15:39 | 68.78378 | 32.75660 | 278 ft | 0 kts | 146° |
| 2026-04-27 15:56 | 68.78386 | 32.75644 | 278 ft | 4 kts | 148° |
| 2026-04-27 15:56 | 68.78406 | 32.75608 | 278 ft | 4 kts | 148° |
| 2026-04-27 15:56 | 68.78425 | 32.75598 | 278 ft | 4 kts | 220° |
| 2026-04-27 15:57 | 68.78439 | 32.75656 | 278 ft | 4 kts | 243° |
| 2026-04-27 15:57 | 68.78447 | 32.75700 | 281 ft | 0 kts | 237° |
| 2026-04-27 16:00 | 68.78447 | 32.75699 | 278 ft | 1 kts | 237° |
| 2026-04-27 16:00 | 68.78438 | 32.75659 | 280 ft | 6 kts | 237° |
| 2026-04-27 16:00 | 68.78390 | 32.75459 | 278 ft | 19 kts | 237° |
| 2026-04-27 16:01 | 68.78295 | 32.75088 | 277 ft | 26 kts | 219° |
| 2026-04-27 16:01 | 68.78139 | 32.75226 | 274 ft | 27 kts | 142° |
| 2026-04-27 16:01 | 68.77987 | 32.75533 | 278 ft | 28 kts | 144° |
| 2026-04-27 16:01 | 68.77784 | 32.75924 | 275 ft | 43 kts | 146° |
| 2026-04-27 16:02 | 68.77527 | 32.76406 | 277 ft | 39 kts | 146° |
| 2026-04-27 16:02 | 68.77439 | 32.76809 | 277 ft | 22 kts | 85° |
| 2026-04-27 16:02 | 68.77401 | 32.77182 | 278 ft | 22 kts | 143° |
| 2026-04-27 16:02 | 68.77308 | 32.77161 | 281 ft | 0 kts | 240° |
| 2026-04-27 16:03 | 68.77305 | 32.77147 | 280 ft | 3 kts | 240° |
| 2026-04-27 16:03 | 68.77281 | 32.77030 | 277 ft | 12 kts | 239° |
| 2026-04-27 16:03 | 68.77290 | 32.76786 | 279 ft | 16 kts | 330° |
| 2026-04-27 16:04 | 68.77338 | 32.76741 | 276 ft | 0 kts | 319° |
| 2026-04-27 16:07 | 68.77339 | 32.76739 | 276 ft | 4 kts | 319° |
| 2026-04-27 16:07 | 68.77549 | 32.76313 | 279 ft | 78 kts | 327° |
| 2026-04-27 16:07 | 68.78230 | 32.75089 | 282 ft | 152 kts | 325° |
| 2026-04-27 16:07 | 68.79270 | 32.73208 | 576 ft | 197 kts | 328° |
| 2026-04-27 16:08 | 68.80477 | 32.71239 | 1795 ft | 194 kts | 328° |
| 2026-04-27 16:08 | 68.81432 | 32.69344 | 3694 ft | 154 kts | 329° |
| 2026-04-27 16:08 | 68.82393 | 32.67467 | 3994 ft | 177 kts | 330° |
| 2026-04-27 16:08 | 68.83461 | 32.65422 | 4245 ft | 197 kts | 330° |
| 2026-04-27 16:09 | 68.84611 | 32.63209 | 4273 ft | 204 kts | 330° |
| 2026-04-27 16:09 | 68.86935 | 32.58435 | 4467 ft | 225 kts | 314° |
| 2026-04-27 16:09 | 68.87504 | 32.54252 | 4529 ft | 246 kts | 282° |
| 2026-04-27 16:10 | 68.86336 | 32.44887 | 4775 ft | 281 kts | 233° |
| 2026-04-27 16:10 | 68.82815 | 32.39952 | 5060 ft | 294 kts | 193° |
| 2026-04-27 16:11 | 68.80784 | 32.39364 | 5179 ft | 294 kts | 174° |
| 2026-04-27 16:11 | 68.77138 | 32.43845 | 5478 ft | 290 kts | 143° |
| 2026-04-27 16:12 | 68.73759 | 32.49980 | 5826 ft | 290 kts | 142° |
| 2026-04-27 16:12 | 68.72078 | 32.53077 | 5974 ft | 291 kts | 142° |
| 2026-04-27 16:12 | 68.68746 | 32.59365 | 7383 ft | 288 kts | 135° |
| 2026-04-27 16:13 | 68.67579 | 32.63721 | 8365 ft | 281 kts | 107° |
| 2026-04-27 16:13 | 68.66666 | 32.74184 | 10205 ft | 287 kts | 98° |
| 2026-04-27 16:13 | 68.66250 | 32.79684 | 10756 ft | 304 kts | 97° |
| 2026-04-27 16:14 | 68.65360 | 32.91791 | 11549 ft | 341 kts | 98° |
| 2026-04-27 16:14 | 68.64417 | 33.04817 | 13051 ft | 350 kts | 97° |
| 2026-04-27 16:15 | 68.63248 | 33.17900 | 14566 ft | 360 kts | 112° |
| 2026-04-27 16:15 | 68.59918 | 33.28329 | 15914 ft | 373 kts | 133° |
| 2026-04-27 16:16 | 68.56079 | 33.38213 | 17198 ft | 380 kts | 134° |
| 2026-04-27 16:16 | 68.52261 | 33.48240 | 18376 ft | 386 kts | 131° |
| 2026-04-27 16:17 | 68.48471 | 33.58733 | 19453 ft | 390 kts | 132° |
| 2026-04-27 16:17 | 68.44617 | 33.69275 | 20519 ft | 395 kts | 131° |
| 2026-04-27 16:18 | 68.40707 | 33.79914 | 21618 ft | 400 kts | 132° |
| 2026-04-27 16:18 | 68.36736 | 33.90662 | 22651 ft | 406 kts | 133° |
| 2026-04-27 16:19 | 68.34727 | 33.96079 | 23187 ft | 409 kts | 132° |
| 2026-04-27 16:19 | 68.32703 | 34.01522 | 23645 ft | 411 kts | 133° |
| 2026-04-27 16:20 | 68.26562 | 34.17947 | 24785 ft | 421 kts | 134° |
| 2026-04-27 16:20 | 68.24471 | 34.23506 | 25150 ft | 424 kts | 133° |
| 2026-04-27 16:20 | 68.20240 | 34.34762 | 25852 ft | 430 kts | 133° |
| 2026-04-27 16:21 | 68.18103 | 34.40442 | 26212 ft | 433 kts | 133° |
| 2026-04-27 16:21 | 68.11593 | 34.57630 | 27255 ft | 441 kts | 135° |
| 2026-04-27 16:22 | 68.09393 | 34.63406 | 27566 ft | 445 kts | 136° |
| 2026-04-27 16:22 | 68.04948 | 34.75033 | 28224 ft | 449 kts | 136° |
| 2026-04-27 16:22 | 68.02731 | 34.80804 | 28532 ft | 452 kts | 136° |
| 2026-04-27 16:23 | 68.00466 | 34.86688 | 28831 ft | 455 kts | 137° |
| 2026-04-27 16:23 | 67.95894 | 34.98508 | 29436 ft | 460 kts | 137° |
| 2026-04-27 16:23 | 67.93590 | 35.04438 | 29732 ft | 462 kts | 137° |
| 2026-04-27 16:24 | 67.91271 | 35.10389 | 29998 ft | 465 kts | 137° |
| 2026-04-27 16:24 | 67.86603 | 35.22315 | 30581 ft | 466 kts | 139° |
| 2026-04-27 16:25 | 67.81952 | 35.34133 | 31154 ft | 466 kts | 137° |
| 2026-04-27 16:25 | 67.77259 | 35.45986 | 31736 ft | 467 kts | 139° |
| 2026-04-27 16:26 | 67.72548 | 35.57811 | 32316 ft | 467 kts | 138° |
| 2026-04-27 16:26 | 67.67827 | 35.69599 | 32894 ft | 468 kts | 139° |
| 2026-04-27 16:27 | 67.63093 | 35.81346 | 33530 ft | 466 kts | 140° |
| 2026-04-27 16:27 | 67.55995 | 35.98834 | 34275 ft | 467 kts | 140° |
| 2026-04-27 16:28 | 67.51246 | 36.10447 | 34735 ft | 467 kts | 139° |
| 2026-04-27 16:28 | 67.46491 | 36.22017 | 35167 ft | 468 kts | 138° |
| 2026-04-27 16:29 | 67.39354 | 36.39250 | 35798 ft | 468 kts | 139° |
| 2026-04-27 16:30 | 67.34572 | 36.50713 | 36259 ft | 467 kts | 139° |
| 2026-04-27 16:30 | 67.29783 | 36.62132 | 36692 ft | 467 kts | 139° |
| 2026-04-27 16:31 | 67.22587 | 36.79166 | 36869 ft | 467 kts | 139° |
| 2026-04-27 16:31 | 67.17822 | 36.90364 | 36873 ft | 467 kts | 139° |
| 2026-04-27 16:32 | 67.10601 | 37.07217 | 36861 ft | 465 kts | 139° |
| 2026-04-27 16:33 | 67.03394 | 37.23900 | 36855 ft | 465 kts | 140° |
| 2026-04-27 16:33 | 66.98582 | 37.34963 | 36858 ft | 465 kts | 140° |
| 2026-04-27 16:34 | 66.93764 | 37.45974 | 36852 ft | 465 kts | 140° |
| 2026-04-27 16:34 | 66.88938 | 37.56949 | 36851 ft | 465 kts | 140° |
| 2026-04-27 16:35 | 66.84136 | 37.67825 | 36844 ft | 465 kts | 140° |
| 2026-04-27 16:36 | 66.76870 | 37.84151 | 36850 ft | 465 kts | 141° |
| 2026-04-27 16:36 | 66.72012 | 37.94952 | 36851 ft | 465 kts | 141° |
| 2026-04-27 16:37 | 66.67148 | 38.05739 | 36852 ft | 465 kts | 140° |
| 2026-04-27 16:37 | 66.62278 | 38.16482 | 36820 ft | 463 kts | 141° |
| 2026-04-27 16:38 | 66.57445 | 38.27086 | 36840 ft | 460 kts | 141° |
| 2026-04-27 16:38 | 66.52617 | 38.37623 | 36834 ft | 460 kts | 141° |
| 2026-04-27 16:39 | 66.47804 | 38.48071 | 36828 ft | 460 kts | 141° |
| 2026-04-27 16:39 | 66.42958 | 38.58537 | 36826 ft | 460 kts | 141° |
| 2026-04-27 16:40 | 66.38920 | 38.67213 | 36827 ft | 460 kts | 141° |
| 2026-04-27 16:40 | 66.34065 | 38.77596 | 36827 ft | 459 kts | 141° |
| 2026-04-27 16:41 | 66.29211 | 38.87921 | 36817 ft | 459 kts | 141° |
| 2026-04-27 16:41 | 66.24348 | 38.98210 | 36818 ft | 459 kts | 141° |
| 2026-04-27 16:42 | 66.19481 | 39.08455 | 36806 ft | 459 kts | 141° |
| 2026-04-27 16:42 | 66.14613 | 39.18659 | 36811 ft | 459 kts | 142° |
| 2026-04-27 16:43 | 66.09752 | 39.28686 | 36802 ft | 458 kts | 142° |
| 2026-04-27 16:43 | 66.04854 | 39.38718 | 36806 ft | 457 kts | 142° |
| 2026-04-27 16:44 | 65.99955 | 39.48705 | 36802 ft | 457 kts | 142° |
| 2026-04-27 16:44 | 65.95049 | 39.58654 | 36801 ft | 457 kts | 142° |
| 2026-04-27 16:45 | 65.90160 | 39.68659 | 36799 ft | 457 kts | 142° |
| 2026-04-27 16:45 | 65.85316 | 39.78604 | 36782 ft | 457 kts | 142° |
| 2026-04-27 16:46 | 65.80447 | 39.88541 | 36793 ft | 455 kts | 142° |
| 2026-04-27 16:46 | 65.75580 | 39.98425 | 36794 ft | 455 kts | 142° |
| 2026-04-27 16:47 | 65.70735 | 40.08338 | 36784 ft | 456 kts | 137° |
| 2026-04-27 16:47 | 65.68752 | 40.14332 | 36780 ft | 458 kts | 121° |
| 2026-04-27 16:47 | 65.67480 | 40.21439 | 36793 ft | 462 kts | 109° |
| 2026-04-27 16:48 | 65.65606 | 40.36422 | 36785 ft | 465 kts | 109° |
| 2026-04-27 16:48 | 65.63793 | 40.51360 | 36777 ft | 464 kts | 108° |
| 2026-04-27 16:49 | 65.61068 | 40.73858 | 36782 ft | 464 kts | 108° |
| 2026-04-27 16:49 | 65.59238 | 40.88814 | 36769 ft | 464 kts | 109° |
| 2026-04-27 16:50 | 65.57390 | 41.03769 | 36772 ft | 464 kts | 109° |
| 2026-04-27 16:50 | 65.55528 | 41.18693 | 36760 ft | 464 kts | 109° |
| 2026-04-27 16:51 | 65.53650 | 41.33619 | 36763 ft | 463 kts | 109° |
| 2026-04-27 16:51 | 65.51779 | 41.48345 | 36750 ft | 462 kts | 109° |
| 2026-04-27 16:52 | 65.49882 | 41.63142 | 36750 ft | 462 kts | 109° |
| 2026-04-27 16:52 | 65.47971 | 41.77917 | 36749 ft | 462 kts | 109° |
| 2026-04-27 16:53 | 65.46046 | 41.92685 | 36751 ft | 462 kts | 109° |
| 2026-04-27 16:53 | 65.44075 | 42.07399 | 36753 ft | 462 kts | 110° |
| 2026-04-27 16:54 | 65.42065 | 42.22078 | 36732 ft | 461 kts | 110° |
| 2026-04-27 16:54 | 65.40068 | 42.36568 | 36742 ft | 460 kts | 111° |
| 2026-04-27 16:55 | 65.38039 | 42.51157 | 36728 ft | 460 kts | 111° |
| 2026-04-27 16:55 | 65.36001 | 42.65705 | 36738 ft | 460 kts | 111° |
| 2026-04-27 16:56 | 65.33973 | 42.80264 | 36735 ft | 460 kts | 111° |
| 2026-04-27 16:56 | 65.31936 | 42.94787 | 36720 ft | 460 kts | 110° |
| 2026-04-27 16:57 | 65.29887 | 43.09266 | 36719 ft | 459 kts | 111° |
| 2026-04-27 16:57 | 65.27830 | 43.23689 | 36713 ft | 459 kts | 111° |
| 2026-04-27 16:58 | 65.25759 | 43.38096 | 36712 ft | 458 kts | 111° |
| 2026-04-27 16:58 | 65.23686 | 43.52389 | 36699 ft | 458 kts | 112° |
| 2026-04-27 16:59 | 65.21589 | 43.66739 | 36702 ft | 458 kts | 111° |
| 2026-04-27 16:59 | 65.19476 | 43.81070 | 36699 ft | 458 kts | 111° |
| 2026-04-27 17:00 | 65.16283 | 44.02523 | 36696 ft | 458 kts | 112° |
| 2026-04-27 17:01 | 65.14137 | 44.16786 | 36686 ft | 458 kts | 112° |
| 2026-04-27 17:01 | 65.11943 | 44.31005 | 36682 ft | 458 kts | 112° |
| 2026-04-27 17:02 | 65.09745 | 44.45191 | 36684 ft | 458 kts | 112° |
| 2026-04-27 17:02 | 65.07548 | 44.59268 | 36671 ft | 458 kts | 112° |
| 2026-04-27 17:03 | 65.05324 | 44.73397 | 36676 ft | 458 kts | 112° |
| 2026-04-27 17:03 | 65.03082 | 44.87535 | 36664 ft | 458 kts | 113° |
| 2026-04-27 17:04 | 65.00830 | 45.01627 | 36667 ft | 458 kts | 113° |
| 2026-04-27 17:04 | 64.98568 | 45.15681 | 36662 ft | 457 kts | 113° |
| 2026-04-27 17:05 | 64.96291 | 45.29720 | 36662 ft | 457 kts | 113° |
| 2026-04-27 17:05 | 64.93999 | 45.43746 | 36661 ft | 457 kts | 113° |
| 2026-04-27 17:06 | 64.91713 | 45.57631 | 36657 ft | 457 kts | 114° |
| 2026-04-27 17:06 | 64.89412 | 45.71638 | 36653 ft | 458 kts | 110° |
| 2026-04-27 17:07 | 64.87643 | 45.86059 | 36637 ft | 459 kts | 109° |
| 2026-04-27 17:07 | 64.85809 | 46.00483 | 36652 ft | 460 kts | 109° |
| 2026-04-27 17:08 | 64.83959 | 46.14770 | 36641 ft | 460 kts | 109° |
| 2026-04-27 17:08 | 64.82081 | 46.29143 | 36641 ft | 460 kts | 109° |
| 2026-04-27 17:09 | 64.80190 | 46.43484 | 36634 ft | 460 kts | 110° |
| 2026-04-27 17:09 | 64.78301 | 46.57807 | 36626 ft | 459 kts | 109° |
| 2026-04-27 17:10 | 64.76414 | 46.72131 | 36623 ft | 459 kts | 110° |
| 2026-04-27 17:10 | 64.74514 | 46.86425 | 36622 ft | 459 kts | 110° |
| 2026-04-27 17:11 | 64.72599 | 47.00711 | 36626 ft | 459 kts | 110° |
| 2026-04-27 17:11 | 64.69576 | 47.21960 | 36605 ft | 458 kts | 111° |
| 2026-04-27 17:12 | 64.66526 | 47.42977 | 36619 ft | 457 kts | 111° |
| 2026-04-27 17:13 | 64.64468 | 47.57018 | 36604 ft | 458 kts | 111° |
| 2026-04-27 17:13 | 64.62385 | 47.71116 | 36614 ft | 460 kts | 112° |
| 2026-04-27 17:14 | 64.60284 | 47.85217 | 36609 ft | 460 kts | 112° |
| 2026-04-27 17:14 | 64.58173 | 47.99281 | 36608 ft | 460 kts | 112° |
| 2026-04-27 17:15 | 64.56053 | 48.13293 | 36608 ft | 458 kts | 112° |
| 2026-04-27 17:15 | 64.53940 | 48.27153 | 36606 ft | 458 kts | 112° |
| 2026-04-27 17:16 | 64.51800 | 48.41082 | 36604 ft | 457 kts | 113° |
| 2026-04-27 17:16 | 64.49646 | 48.54988 | 36597 ft | 458 kts | 113° |
| 2026-04-27 17:17 | 64.47480 | 48.68883 | 36600 ft | 457 kts | 113° |
| 2026-04-27 17:17 | 64.45291 | 48.82726 | 36599 ft | 457 kts | 114° |
| 2026-04-27 17:18 | 64.41929 | 49.03380 | 36602 ft | 456 kts | 114° |
| 2026-04-27 17:18 | 64.39694 | 49.17015 | 36589 ft | 456 kts | 114° |
| 2026-04-27 17:19 | 64.37464 | 49.30807 | 36607 ft | 459 kts | 113° |
| 2026-04-27 17:19 | 64.35235 | 49.44627 | 36600 ft | 459 kts | 114° |
| 2026-04-27 17:20 | 64.32992 | 49.58415 | 36612 ft | 459 kts | 114° |
| 2026-04-27 17:20 | 64.30736 | 49.72179 | 36597 ft | 458 kts | 114° |
| 2026-04-27 17:21 | 64.29608 | 49.79027 | 36424 ft | 453 kts | 114° |
| 2026-04-27 17:21 | 64.28485 | 49.85815 | 35568 ft | 457 kts | 114° |
| 2026-04-27 17:21 | 64.27339 | 49.92717 | 34596 ft | 463 kts | 114° |
| 2026-04-27 17:21 | 64.26191 | 49.99612 | 34115 ft | 458 kts | 115° |
| 2026-04-27 17:22 | 64.25049 | 50.06443 | 33316 ft | 459 kts | 115° |
| 2026-04-27 17:22 | 64.23903 | 50.13265 | 32220 ft | 465 kts | 115° |
| 2026-04-27 17:22 | 64.22740 | 50.20178 | 31611 ft | 461 kts | 115° |
| 2026-04-27 17:22 | 64.21580 | 50.27036 | 30817 ft | 461 kts | 115° |
| 2026-04-27 17:23 | 64.20411 | 50.33929 | 29838 ft | 465 kts | 116° |
| 2026-04-27 17:23 | 64.19232 | 50.40854 | 29002 ft | 464 kts | 116° |
| 2026-04-27 17:23 | 64.18059 | 50.47726 | 28416 ft | 458 kts | 116° |
| 2026-04-27 17:23 | 64.16901 | 50.54476 | 27782 ft | 452 kts | 116° |
| 2026-04-27 17:24 | 64.15753 | 50.61147 | 27189 ft | 447 kts | 116° |
| 2026-04-27 17:24 | 64.14615 | 50.67741 | 26580 ft | 443 kts | 116° |
| 2026-04-27 17:24 | 64.13498 | 50.74182 | 25990 ft | 439 kts | 116° |
| 2026-04-27 17:24 | 64.12372 | 50.80663 | 25393 ft | 436 kts | 116° |
| 2026-04-27 17:25 | 64.11252 | 50.87085 | 24809 ft | 433 kts | 116° |
| 2026-04-27 17:25 | 64.10136 | 50.93459 | 24223 ft | 430 kts | 116° |
| 2026-04-27 17:25 | 64.09025 | 50.99786 | 23645 ft | 428 kts | 116° |
| 2026-04-27 17:25 | 64.07915 | 51.06086 | 23033 ft | 426 kts | 116° |
| 2026-04-27 17:26 | 64.06811 | 51.12333 | 22379 ft | 423 kts | 116° |
| 2026-04-27 17:26 | 64.05711 | 51.18539 | 21794 ft | 419 kts | 116° |
| 2026-04-27 17:26 | 64.04621 | 51.24669 | 21237 ft | 415 kts | 116° |
| 2026-04-27 17:26 | 64.03539 | 51.30733 | 20656 ft | 411 kts | 116° |
| 2026-04-27 17:27 | 64.02458 | 51.36770 | 20117 ft | 407 kts | 116° |
| 2026-04-27 17:27 | 64.01389 | 51.42727 | 19583 ft | 404 kts | 116° |
| 2026-04-27 17:27 | 64.00339 | 51.48562 | 19055 ft | 402 kts | 116° |
| 2026-04-27 17:27 | 63.99277 | 51.54437 | 18515 ft | 399 kts | 116° |
| 2026-04-27 17:28 | 63.98221 | 51.60267 | 18001 ft | 397 kts | 116° |
| 2026-04-27 17:28 | 63.97166 | 51.66073 | 17416 ft | 395 kts | 116° |
| 2026-04-27 17:28 | 63.95076 | 51.77531 | 16359 ft | 389 kts | 116° |
| 2026-04-27 17:29 | 63.94042 | 51.83172 | 15870 ft | 385 kts | 116° |
| 2026-04-27 17:29 | 63.93013 | 51.88769 | 15385 ft | 382 kts | 117° |
| 2026-04-27 17:29 | 63.92334 | 51.92453 | 15056 ft | 381 kts | 117° |
| 2026-04-27 17:29 | 63.91315 | 51.97974 | 14591 ft | 378 kts | 117° |
| 2026-04-27 17:30 | 63.90300 | 52.03455 | 14123 ft | 375 kts | 117° |
| 2026-04-27 17:30 | 63.87963 | 52.16047 | 13004 ft | 370 kts | 116° |
| 2026-04-27 17:30 | 63.86965 | 52.21400 | 12535 ft | 367 kts | 117° |
| 2026-04-27 17:31 | 63.86295 | 52.24988 | 12234 ft | 364 kts | 117° |
| 2026-04-27 17:31 | 63.85317 | 52.30272 | 11785 ft | 362 kts | 114° |
| 2026-04-27 17:31 | 63.84789 | 52.35882 | 11236 ft | 367 kts | 100° |
| 2026-04-27 17:31 | 63.84467 | 52.41494 | 10971 ft | 359 kts | 101° |
| 2026-04-27 17:32 | 63.84138 | 52.47009 | 10855 ft | 347 kts | 101° |
| 2026-04-27 17:32 | 63.83500 | 52.57537 | 10534 ft | 328 kts | 102° |
| 2026-04-27 17:32 | 63.83190 | 52.62585 | 10374 ft | 319 kts | 102° |
| 2026-04-27 17:33 | 63.82888 | 52.67489 | 10218 ft | 310 kts | 102° |
| 2026-04-27 17:33 | 63.82591 | 52.72264 | 10077 ft | 302 kts | 102° |
| 2026-04-27 17:33 | 63.82302 | 52.76903 | 9933 ft | 293 kts | 102° |
| 2026-04-27 17:33 | 63.82019 | 52.81415 | 9783 ft | 285 kts | 102° |
| 2026-04-27 17:34 | 63.81742 | 52.85805 | 9602 ft | 279 kts | 103° |
| 2026-04-27 17:34 | 63.81467 | 52.90134 | 9284 ft | 277 kts | 103° |
| 2026-04-27 17:34 | 63.81191 | 52.94450 | 8957 ft | 276 kts | 103° |
| 2026-04-27 17:34 | 63.80916 | 52.98739 | 8648 ft | 274 kts | 103° |
| 2026-04-27 17:35 | 63.80643 | 53.02989 | 8368 ft | 272 kts | 103° |
| 2026-04-27 17:35 | 63.80370 | 53.07205 | 8077 ft | 270 kts | 103° |
| 2026-04-27 17:35 | 63.80098 | 53.11382 | 7793 ft | 267 kts | 104° |
| 2026-04-27 17:35 | 63.79828 | 53.15526 | 7508 ft | 265 kts | 104° |
| 2026-04-27 17:36 | 63.79559 | 53.19638 | 7213 ft | 263 kts | 104° |
| 2026-04-27 17:36 | 63.79290 | 53.23729 | 6900 ft | 263 kts | 104° |
| 2026-04-27 17:36 | 63.79021 | 53.27802 | 6632 ft | 261 kts | 104° |
| 2026-04-27 17:36 | 63.78753 | 53.31841 | 6365 ft | 259 kts | 104° |
| 2026-04-27 17:37 | 63.78487 | 53.35850 | 6083 ft | 257 kts | 104° |
| 2026-04-27 17:37 | 63.78220 | 53.39833 | 5797 ft | 255 kts | 105° |
| 2026-04-27 17:37 | 63.77955 | 53.43785 | 5518 ft | 253 kts | 105° |
| 2026-04-27 17:37 | 63.77691 | 53.47708 | 5212 ft | 252 kts | 105° |
| 2026-04-27 17:38 | 63.77432 | 53.51545 | 4960 ft | 248 kts | 105° |
| 2026-04-27 17:38 | 63.77170 | 53.55388 | 4701 ft | 246 kts | 106° |
| 2026-04-27 17:38 | 63.76912 | 53.59168 | 4519 ft | 239 kts | 106° |
| 2026-04-27 17:38 | 63.76663 | 53.62806 | 4386 ft | 229 kts | 107° |
| 2026-04-27 17:39 | 63.76425 | 53.66277 | 4283 ft | 218 kts | 107° |
| 2026-04-27 17:39 | 63.76172 | 53.69577 | 4199 ft | 206 kts | 112° |
| 2026-04-27 17:39 | 63.75805 | 53.72624 | 4116 ft | 198 kts | 114° |
| 2026-04-27 17:39 | 63.75440 | 53.75604 | 3989 ft | 196 kts | 114° |
| 2026-04-27 17:40 | 63.75084 | 53.78553 | 3864 ft | 192 kts | 114° |
| 2026-04-27 17:40 | 63.74742 | 53.81417 | 3726 ft | 186 kts | 114° |
| 2026-04-27 17:40 | 63.74409 | 53.84217 | 3584 ft | 181 kts | 114° |
| 2026-04-27 17:40 | 63.74070 | 53.86872 | 3454 ft | 171 kts | 123° |
| 2026-04-27 17:41 | 63.73353 | 53.88718 | 3256 ft | 151 kts | 156° |
| 2026-04-27 17:41 | 63.72388 | 53.89317 | 3073 ft | 145 kts | 180° |
| 2026-04-27 17:41 | 63.71393 | 53.89027 | 2873 ft | 142 kts | 189° |
| 2026-04-27 17:41 | 63.70455 | 53.88593 | 2705 ft | 131 kts | 190° |
| 2026-04-27 17:42 | 63.69582 | 53.88151 | 2303 ft | 126 kts | 191° |
| 2026-04-27 17:42 | 63.68757 | 53.87636 | 1955 ft | 122 kts | 194° |
| 2026-04-27 17:42 | 63.67960 | 53.86989 | 1752 ft | 123 kts | 194° |
| 2026-04-27 17:42 | 63.67154 | 53.86353 | 1736 ft | 124 kts | 193° |
| 2026-04-27 17:43 | 63.66325 | 53.85819 | 1631 ft | 124 kts | 190° |
| 2026-04-27 17:43 | 63.65513 | 53.85252 | 1585 ft | 121 kts | 187° |
| 2026-04-27 17:43 | 63.64695 | 53.84785 | 1496 ft | 121 kts | 191° |
| 2026-04-27 17:43 | 63.63892 | 53.84188 | 1399 ft | 122 kts | 189° |
| 2026-04-27 17:44 | 63.63057 | 53.83777 | 1188 ft | 125 kts | 186° |
| 2026-04-27 17:44 | 63.62177 | 53.83460 | 1008 ft | 131 kts | 186° |
| 2026-04-27 17:44 | 63.61268 | 53.83048 | 947 ft | 135 kts | 190° |
| 2026-04-27 17:44 | 63.60339 | 53.82542 | 828 ft | 139 kts | 191° |
| 2026-04-27 17:45 | 63.59393 | 53.82032 | 681 ft | 141 kts | 190° |
| 2026-04-27 17:45 | 63.58445 | 53.81465 | 583 ft | 142 kts | 189° |
| 2026-04-27 17:45 | 63.57479 | 53.80945 | 463 ft | 140 kts | 191° |
| 2026-04-27 17:45 | 63.56717 | 53.80476 | 463 ft | 79 kts | 197° |
| 2026-04-27 17:46 | 63.56304 | 53.80224 | 469 ft | 59 kts | 196° |
| 2026-04-27 17:46 | 63.55996 | 53.80030 | 475 ft | 25 kts | 195° |
| 2026-04-27 17:46 | 63.55877 | 53.80034 | 480 ft | 17 kts | 150° |
| 2026-04-27 17:46 | 63.55830 | 53.80096 | 476 ft | 8 kts | 149° |
| 2026-04-27 17:47 | 63.55778 | 53.80166 | 478 ft | 9 kts | 149° |
| 2026-04-27 17:47 | 63.55739 | 53.80218 | 478 ft | 10 kts | 143° |
| 2026-04-27 17:47 | 63.55734 | 53.80362 | 473 ft | 0 kts | 79° |
| 2026-04-27 17:47 | 63.55737 | 53.80395 | 477 ft | 4 kts | 79° |
| 2026-04-27 17:48 | 63.55744 | 53.80470 | 477 ft | 6 kts | 77° |
| 2026-04-27 17:48 | 63.55762 | 53.80573 | 473 ft | 8 kts | 34° |
| 2026-04-27 17:48 | 63.55799 | 53.80558 | 476 ft | 3 kts | 306° |
| 2026-04-27 17:48 | 63.55800 | 53.80547 | 476 ft | 0 kts | 268° |
| 2026-04-27 17:49 | 63.55799 | 53.80545 | 477 ft | 0 kts | 253° |
| 2026-04-27 17:49 | 63.55790 | 53.80507 | 476 ft | 5 kts | 249° |
| 2026-04-27 17:49 | 63.55790 | 53.80440 | 473 ft | 0 kts | 282° |
| 2026-04-27 17:49 | 63.55790 | 53.80438 | 473 ft | 0 kts | 282° |
| 2026-04-27 17:50 | 63.55786 | 53.80443 | 474 ft | 0 kts | 282° |